createdAt,value
2017-05-06T00:02:14.080Z,0
2017-05-06T00:04:52.286Z,0
2017-05-06T00:05:32.735Z,0
2017-05-06T00:06:13.150Z,0
2017-05-06T00:06:53.544Z,0
2017-05-06T00:07:33.989Z,0
2017-05-06T00:08:15.046Z,0
2017-05-06T00:10:34.502Z,0
2017-05-06T00:11:14.923Z,0
2017-05-06T00:11:55.355Z,0
2017-05-06T00:12:35.775Z,0
2017-05-06T00:13:16.189Z,0
2017-05-06T00:13:56.580Z,0
2017-05-06T00:14:37.008Z,0
2017-05-06T00:15:17.410Z,0
2017-05-06T00:15:57.822Z,0
2017-05-06T00:16:38.295Z,0
2017-05-06T00:17:18.718Z,0
2017-05-06T00:17:59.140Z,0
2017-05-06T00:18:39.543Z,0
2017-05-06T00:19:19.941Z,0
2017-05-06T00:20:00.375Z,0
2017-05-06T00:20:40.786Z,0
2017-05-06T00:21:21.198Z,0
2017-05-06T00:22:01.615Z,0
2017-05-06T00:22:41.985Z,0
2017-05-06T00:23:22.415Z,0
2017-05-06T00:24:02.828Z,0
2017-05-06T00:24:44.029Z,0
2017-05-06T00:25:24.477Z,0
2017-05-06T00:26:04.906Z,0
2017-05-06T00:26:45.306Z,0
2017-05-06T00:27:25.719Z,0
2017-05-06T00:28:06.123Z,0
2017-05-06T00:28:46.561Z,0
2017-05-06T00:29:26.965Z,0
2017-05-06T00:30:07.368Z,0
2017-05-06T00:30:47.811Z,0
2017-05-06T00:31:28.216Z,0
2017-05-06T00:32:08.604Z,0
2017-05-06T00:32:49.029Z,0
2017-05-06T00:33:29.447Z,0
2017-05-06T00:34:09.857Z,0
2017-05-06T00:34:50.275Z,0
2017-05-06T00:35:30.704Z,0
2017-05-06T00:36:11.150Z,0
2017-05-06T00:36:51.543Z,0
2017-05-06T00:37:31.958Z,0
2017-05-06T00:38:12.397Z,0
2017-05-06T00:38:52.835Z,0
2017-05-06T00:39:33.266Z,0
2017-05-06T00:40:13.670Z,0
2017-05-06T00:40:54.086Z,0
2017-05-06T00:41:34.524Z,0
2017-05-06T00:42:14.920Z,0
2017-05-06T00:42:55.345Z,0
2017-05-06T00:43:35.746Z,0
2017-05-06T00:44:16.161Z,0
2017-05-06T00:44:56.571Z,0
2017-05-06T00:45:37.012Z,0
2017-05-06T00:46:17.419Z,0
2017-05-06T00:46:57.811Z,0
2017-05-06T00:49:24.339Z,0
2017-05-06T00:50:04.775Z,0
2017-05-06T00:50:45.152Z,0
2017-05-06T00:51:27.436Z,0
2017-05-06T00:52:08.783Z,0
2017-05-06T00:52:49.179Z,0
2017-05-06T00:53:29.619Z,0
2017-05-06T00:54:10.033Z,0
2017-05-06T00:54:50.444Z,0
2017-05-06T00:55:30.851Z,0
2017-05-06T00:56:11.270Z,0
2017-05-06T00:56:51.680Z,0
2017-05-06T00:57:32.095Z,0
2017-05-06T00:58:12.533Z,0
2017-05-06T00:58:52.953Z,0
2017-05-06T00:59:33.347Z,0
2017-05-06T01:00:13.798Z,0
2017-05-06T01:00:54.217Z,0
2017-05-06T01:01:34.614Z,0
2017-05-06T01:02:15.056Z,0
2017-05-06T01:02:55.429Z,0
2017-05-06T01:03:35.868Z,0
2017-05-06T01:04:16.309Z,0
2017-05-06T01:04:56.693Z,0
2017-05-06T01:05:37.106Z,0
2017-05-06T01:06:17.508Z,0
2017-05-06T01:08:55.693Z,0
2017-05-06T01:09:36.113Z,0
2017-05-06T01:10:16.516Z,0
2017-05-06T01:10:56.957Z,0
2017-05-06T01:11:37.375Z,0
2017-05-06T01:13:50.267Z,0
2017-05-06T01:14:30.716Z,0
2017-05-06T01:15:11.127Z,0
2017-05-06T01:15:51.539Z,0
2017-05-06T01:16:31.961Z,0
2017-05-06T01:17:12.367Z,0
2017-05-06T01:17:52.792Z,0
2017-05-06T01:18:33.206Z,0
2017-05-06T01:19:13.657Z,0
2017-05-06T01:19:54.086Z,0
2017-05-06T01:20:34.474Z,0
2017-05-06T01:21:14.893Z,0
2017-05-06T01:21:55.315Z,0
2017-05-06T01:22:35.732Z,0
2017-05-06T01:23:16.166Z,0
2017-05-06T01:23:56.549Z,0
2017-05-06T01:24:37.743Z,0
2017-05-06T01:25:18.147Z,0
2017-05-06T01:25:58.575Z,0
2017-05-06T01:28:36.869Z,0
2017-05-06T01:29:17.332Z,0
2017-05-06T01:29:57.793Z,0
2017-05-06T01:30:38.181Z,0
2017-05-06T01:31:18.577Z,0
2017-05-06T01:31:58.986Z,0
2017-05-06T01:32:39.404Z,0
2017-05-06T01:35:12.535Z,0
2017-05-06T01:35:52.976Z,0
2017-05-06T01:36:33.411Z,0
2017-05-06T01:37:13.818Z,0
2017-05-06T01:37:54.230Z,0
2017-05-06T01:38:34.658Z,0
2017-05-06T01:39:15.055Z,0
2017-05-06T01:39:55.476Z,0
2017-05-06T01:40:35.909Z,0
2017-05-06T01:41:16.307Z,0
2017-05-06T01:41:56.755Z,0
2017-05-06T01:42:37.158Z,0
2017-05-06T01:43:17.561Z,0
2017-05-06T01:43:58.021Z,0
2017-05-06T01:44:38.445Z,0
2017-05-06T01:45:18.843Z,0
2017-05-06T01:45:59.257Z,0
2017-05-06T01:46:39.676Z,0
2017-05-06T01:47:20.073Z,0
2017-05-06T01:48:00.476Z,0
2017-05-06T01:48:40.897Z,0
2017-05-06T01:49:21.295Z,0
2017-05-06T01:50:01.724Z,0
2017-05-06T01:50:42.141Z,0
2017-05-06T01:51:22.525Z,0
2017-05-06T01:52:03.616Z,0
2017-05-06T01:52:44.012Z,0
2017-05-06T01:53:24.440Z,0
2017-05-06T01:54:04.865Z,0
2017-05-06T01:54:45.274Z,0
2017-05-06T01:55:25.690Z,0
2017-05-06T01:56:06.116Z,0
2017-05-06T01:56:46.521Z,0
2017-05-06T01:57:26.923Z,0
2017-05-06T01:58:07.325Z,0
2017-05-06T02:00:40.543Z,0
2017-05-06T02:01:20.972Z,0
2017-05-06T02:02:01.383Z,0
2017-05-06T02:02:41.817Z,0
2017-05-06T02:03:22.224Z,0
2017-05-06T02:04:02.636Z,0
2017-05-06T02:04:43.090Z,0
2017-05-06T02:05:23.490Z,0
2017-05-06T02:06:03.882Z,0
2017-05-06T02:06:44.332Z,0
2017-05-06T02:07:24.775Z,0
2017-05-06T02:08:05.190Z,0
2017-05-06T02:08:45.572Z,0
2017-05-06T02:09:25.992Z,0
2017-05-06T02:10:06.402Z,0
2017-05-06T02:10:46.788Z,0
2017-05-06T02:11:27.235Z,0
2017-05-06T02:12:07.648Z,0
2017-05-06T02:12:48.039Z,0
2017-05-06T02:13:28.464Z,0
2017-05-06T02:14:08.871Z,0
2017-05-06T02:14:49.291Z,0
2017-05-06T02:15:29.775Z,0
2017-05-06T02:16:10.118Z,0
2017-05-06T02:16:50.515Z,0
2017-05-06T02:17:30.934Z,0
2017-05-06T02:18:11.410Z,0
2017-05-06T02:18:51.803Z,0
2017-05-06T02:19:32.783Z,0
2017-05-06T02:20:13.165Z,0
2017-05-06T02:20:53.591Z,0
2017-05-06T02:21:33.985Z,0
2017-05-06T02:22:14.400Z,0
2017-05-06T02:22:54.829Z,0
2017-05-06T02:23:35.248Z,0
2017-05-06T02:24:15.651Z,0
2017-05-06T02:26:53.620Z,0
2017-05-06T02:27:33.974Z,0
2017-05-06T02:28:14.370Z,0
2017-05-06T02:28:54.788Z,0
2017-05-06T02:29:35.194Z,0
2017-05-06T02:30:15.583Z,0
2017-05-06T02:32:34.427Z,0
2017-05-06T02:33:14.868Z,0
2017-05-06T02:33:55.336Z,0
2017-05-06T02:34:35.754Z,0
2017-05-06T02:35:16.179Z,0
2017-05-06T02:35:56.611Z,0
2017-05-06T02:36:37.048Z,0
2017-05-06T02:37:17.532Z,0
2017-05-06T02:37:57.865Z,0
2017-05-06T02:38:38.279Z,0
2017-05-06T02:39:18.725Z,0
2017-05-06T02:39:59.173Z,0
2017-05-06T02:40:40.521Z,0
2017-05-06T02:41:20.972Z,0
2017-05-06T02:42:01.381Z,0
2017-05-06T02:42:41.801Z,0
2017-05-06T02:43:22.218Z,0
2017-05-06T02:44:02.650Z,0
2017-05-06T02:44:43.100Z,0
2017-05-06T02:45:23.498Z,0
2017-05-06T02:46:03.925Z,0
2017-05-06T02:46:44.353Z,0
2017-05-06T02:47:24.779Z,0
2017-05-06T02:48:05.208Z,0
2017-05-06T02:48:45.587Z,0
2017-05-06T02:49:26.021Z,0
2017-05-06T02:50:06.431Z,0
2017-05-06T02:50:46.842Z,0
2017-05-06T02:51:27.279Z,0
2017-05-06T02:52:07.699Z,0
2017-05-06T02:52:48.113Z,0
2017-05-06T02:53:28.538Z,0
2017-05-06T02:54:08.944Z,0
2017-05-06T02:54:49.345Z,0
2017-05-06T02:55:29.759Z,0
2017-05-06T02:56:10.174Z,0
2017-05-06T02:56:50.612Z,0
2017-05-06T02:57:31.013Z,0
2017-05-06T02:58:11.419Z,0
2017-05-06T02:58:51.826Z,0
2017-05-06T02:59:32.939Z,0
2017-05-06T03:00:13.391Z,0
2017-05-06T03:00:53.761Z,0
2017-05-06T03:01:34.210Z,0
2017-05-06T03:02:14.581Z,0
2017-05-06T03:02:55.015Z,0
2017-05-06T03:03:35.440Z,0
2017-05-06T03:04:15.883Z,0
2017-05-06T03:04:56.303Z,0
2017-05-06T03:05:36.710Z,0
2017-05-06T03:06:17.119Z,0
2017-05-06T03:06:57.573Z,0
2017-05-06T03:07:38.140Z,0
2017-05-06T03:08:18.591Z,0
2017-05-06T03:08:59.023Z,0
2017-05-06T03:09:39.450Z,0
2017-05-06T03:10:19.850Z,0
2017-05-06T03:11:00.292Z,0
2017-05-06T03:11:40.742Z,0
2017-05-06T03:12:21.097Z,0
2017-05-06T03:13:01.539Z,0
2017-05-06T03:13:41.967Z,0
2017-05-06T03:14:22.391Z,0
2017-05-06T03:15:02.800Z,0
2017-05-06T03:15:43.238Z,0
2017-05-06T03:16:23.640Z,0
2017-05-06T03:17:04.086Z,0
2017-05-06T03:17:44.505Z,0
2017-05-06T03:18:24.918Z,0
2017-05-06T03:19:05.334Z,0
2017-05-06T03:19:45.788Z,0
2017-05-06T03:20:26.202Z,0
2017-05-06T03:21:06.599Z,0
2017-05-06T03:21:47.020Z,0
2017-05-06T03:22:27.423Z,0
2017-05-06T03:23:07.849Z,0
2017-05-06T03:23:48.282Z,0
2017-05-06T03:24:28.683Z,0
2017-05-06T03:25:09.128Z,0
2017-05-06T03:25:49.534Z,0
2017-05-06T03:28:02.332Z,0
2017-05-06T03:28:42.763Z,0
2017-05-06T03:29:23.185Z,0
2017-05-06T03:30:03.613Z,0
2017-05-06T03:30:44.029Z,0
2017-05-06T03:31:24.457Z,0
2017-05-06T03:33:57.755Z,0
2017-05-06T03:34:38.225Z,0
2017-05-06T03:35:18.623Z,0
2017-05-06T03:35:59.016Z,0
2017-05-06T03:36:39.458Z,0
2017-05-06T03:37:19.916Z,0
2017-05-06T03:38:00.317Z,0
2017-05-06T03:38:40.693Z,0
2017-05-06T03:39:21.117Z,0
2017-05-06T03:40:01.506Z,0
2017-05-06T03:40:41.934Z,0
2017-05-06T03:41:22.365Z,0
2017-05-06T03:42:03.617Z,0
2017-05-06T03:42:44.061Z,0
2017-05-06T03:43:24.458Z,0
2017-05-06T03:44:04.895Z,0
2017-05-06T03:46:32.837Z,5
2017-05-06T03:47:13.297Z,5
2017-05-06T03:47:53.730Z,5
2017-05-06T03:48:34.131Z,5
2017-05-06T03:49:14.584Z,5
2017-05-06T03:49:54.996Z,5
2017-05-06T03:50:35.415Z,5
2017-05-06T03:51:15.809Z,5
2017-05-06T03:51:56.228Z,10
2017-05-06T03:52:36.602Z,10
2017-05-06T03:53:17.041Z,10
2017-05-06T03:53:57.454Z,10
2017-05-06T03:54:38.057Z,10
2017-05-06T03:55:18.566Z,10
2017-05-06T03:55:58.984Z,10
2017-05-06T03:56:39.400Z,10
2017-05-06T03:57:19.831Z,15
2017-05-06T03:58:00.268Z,15
2017-05-06T03:58:40.656Z,15
2017-05-06T03:59:22.173Z,15
2017-05-06T04:00:02.572Z,15
2017-05-06T04:00:43.278Z,15
2017-05-06T04:01:23.603Z,20
2017-05-06T04:02:04.002Z,20
2017-05-06T04:02:44.415Z,20
2017-05-06T04:04:57.234Z,25
2017-05-06T04:05:37.685Z,25
2017-05-06T04:06:18.214Z,25
2017-05-06T04:06:58.564Z,25
2017-05-06T04:07:39.003Z,30
2017-05-06T04:08:19.440Z,30
2017-05-06T04:08:59.837Z,30
2017-05-06T04:09:40.273Z,30
2017-05-06T04:10:20.654Z,35
2017-05-06T04:11:01.108Z,35
2017-05-06T04:11:41.503Z,35
2017-05-06T04:12:21.935Z,35
2017-05-06T04:14:55.060Z,40
2017-05-06T04:15:35.478Z,40
2017-05-06T04:16:15.888Z,45
2017-05-06T04:16:56.323Z,45
2017-05-06T04:17:36.724Z,45
2017-05-06T04:18:17.132Z,50
2017-05-06T04:18:57.547Z,50
2017-05-06T04:19:37.987Z,50
2017-05-06T04:20:18.370Z,50
2017-05-06T04:20:58.798Z,55
2017-05-06T04:21:39.219Z,55
2017-05-06T04:22:19.601Z,55
2017-05-06T04:23:00.034Z,55
2017-05-06T04:23:40.441Z,60
2017-05-06T04:24:20.857Z,60
2017-05-06T04:25:01.273Z,60
2017-05-06T04:25:41.679Z,65
2017-05-06T04:26:22.087Z,65
2017-05-06T04:27:02.522Z,65
2017-05-06T04:27:42.924Z,65
2017-05-06T04:28:23.384Z,70
2017-05-06T04:29:03.798Z,70
2017-05-06T04:29:44.213Z,70
2017-05-06T04:30:24.647Z,70
2017-05-06T04:31:05.020Z,70
2017-05-06T04:31:45.467Z,75
2017-05-06T04:32:25.891Z,75
2017-05-06T04:33:06.297Z,75
2017-05-06T04:33:46.697Z,80
2017-05-06T04:34:27.152Z,80
2017-05-06T04:35:07.572Z,80
2017-05-06T04:35:47.955Z,85
2017-05-06T04:36:28.434Z,85
2017-05-06T04:37:08.848Z,85
2017-05-06T04:37:49.242Z,90
2017-05-06T04:38:29.685Z,90
2017-05-06T04:39:10.083Z,90
2017-05-06T04:39:50.472Z,95
2017-05-06T04:40:30.916Z,95
2017-05-06T04:41:11.328Z,95
2017-05-06T04:41:51.748Z,100
2017-05-06T04:42:32.151Z,100
2017-05-06T04:43:12.591Z,100
2017-05-06T04:43:52.968Z,105
2017-05-06T04:44:33.401Z,105
2017-05-06T04:45:13.797Z,105
2017-05-06T04:45:54.213Z,110
2017-05-06T04:46:34.660Z,110
2017-05-06T04:47:15.086Z,110
2017-05-06T04:47:55.471Z,110
2017-05-06T04:48:35.882Z,110
2017-05-06T04:49:16.298Z,110
2017-05-06T04:49:56.718Z,110
2017-05-06T04:50:37.135Z,110
2017-05-06T04:51:17.560Z,110
2017-05-06T04:51:57.970Z,110
2017-05-06T04:52:38.412Z,115
2017-05-06T04:53:18.864Z,115
2017-05-06T04:53:59.284Z,115
2017-05-06T04:54:39.715Z,115
2017-05-06T04:55:20.089Z,115
2017-05-06T04:56:00.520Z,120
2017-05-06T04:56:40.945Z,120
2017-05-06T04:57:21.353Z,125
2017-05-06T04:58:01.823Z,125
2017-05-06T04:58:42.214Z,125
2017-05-06T04:59:22.675Z,125
2017-05-06T05:00:03.098Z,125
2017-05-06T05:00:43.507Z,130
2017-05-06T05:01:23.907Z,135
2017-05-06T05:02:04.338Z,135
2017-05-06T05:02:44.763Z,135
2017-05-06T05:03:25.166Z,145
2017-05-06T05:04:05.605Z,145
2017-05-06T05:04:46.016Z,150
2017-05-06T05:05:26.426Z,155
2017-05-06T05:06:06.833Z,165
2017-05-06T05:06:47.261Z,155
2017-05-06T05:07:27.689Z,155
2017-05-06T05:08:08.076Z,160
2017-05-06T05:08:48.485Z,165
2017-05-06T05:09:28.895Z,170
2017-05-06T05:10:09.314Z,175
2017-05-06T05:10:50.408Z,190
2017-05-06T05:11:30.773Z,205
2017-05-06T05:12:11.341Z,200
2017-05-06T05:12:51.874Z,210
2017-05-06T05:13:32.198Z,205
2017-05-06T05:14:12.579Z,215
2017-05-06T05:14:52.978Z,225
2017-05-06T05:15:33.448Z,225
2017-05-06T05:16:13.832Z,230
2017-05-06T05:16:54.233Z,235
2017-05-06T05:17:34.674Z,240
2017-05-06T05:18:15.097Z,240
2017-05-06T05:18:55.520Z,245
2017-05-06T05:19:35.940Z,245
2017-05-06T05:20:16.391Z,250
2017-05-06T05:20:56.802Z,255
2017-05-06T05:21:37.230Z,255
2017-05-06T05:22:17.634Z,260
2017-05-06T05:22:58.062Z,260
2017-05-06T05:23:38.466Z,260
2017-05-06T05:24:18.862Z,260
2017-05-06T05:24:59.269Z,260
2017-05-06T05:25:39.697Z,265
2017-05-06T05:26:20.117Z,265
2017-05-06T05:27:00.565Z,260
2017-05-06T05:27:40.993Z,255
2017-05-06T05:28:21.362Z,230
2017-05-06T05:29:01.782Z,220
2017-05-06T05:29:42.401Z,260
2017-05-06T05:30:22.862Z,260
2017-05-06T05:31:03.257Z,245
2017-05-06T05:31:43.915Z,255
2017-05-06T05:32:24.347Z,255
2017-05-06T05:33:04.779Z,260
2017-05-06T05:33:47.001Z,265
2017-05-06T05:34:27.438Z,265
2017-05-06T05:35:07.829Z,265
2017-05-06T05:35:49.678Z,270
2017-05-06T05:36:30.083Z,270
2017-05-06T05:37:11.059Z,265
2017-05-06T05:37:51.483Z,270
2017-05-06T05:38:31.907Z,270
2017-05-06T05:39:12.361Z,265
2017-05-06T05:39:52.820Z,260
2017-05-06T05:40:33.232Z,230
2017-05-06T05:41:13.667Z,265
2017-05-06T05:41:54.110Z,275
2017-05-06T05:42:34.625Z,270
2017-05-06T05:43:14.955Z,225
2017-05-06T05:45:27.870Z,280
2017-05-06T05:46:08.315Z,280
2017-05-06T05:46:48.740Z,295
2017-05-06T05:47:29.179Z,290
2017-05-06T05:48:09.600Z,280
2017-05-06T05:48:50.022Z,290
2017-05-06T05:49:30.447Z,290
2017-05-06T05:50:10.843Z,305
2017-05-06T05:50:51.277Z,315
2017-05-06T05:51:31.719Z,315
2017-05-06T05:52:12.099Z,320
2017-05-06T05:52:52.543Z,320
2017-05-06T05:53:32.921Z,320
2017-05-06T05:54:13.328Z,320
2017-05-06T05:54:53.746Z,315
2017-05-06T05:55:34.182Z,325
2017-05-06T05:56:14.579Z,320
2017-05-06T05:56:54.990Z,330
2017-05-06T05:57:35.419Z,320
2017-05-06T05:58:15.817Z,315
2017-05-06T05:58:56.272Z,325
2017-05-06T05:59:36.680Z,320
2017-05-06T06:02:09.656Z,350
2017-05-06T06:02:50.094Z,355
2017-05-06T06:03:30.533Z,360
2017-05-06T06:04:10.945Z,360
2017-05-06T06:04:51.389Z,355
2017-05-06T06:05:31.820Z,365
2017-05-06T06:06:12.244Z,360
2017-05-06T06:06:52.635Z,355
2017-05-06T06:07:33.048Z,375
2017-05-06T06:08:13.504Z,365
2017-05-06T06:08:53.938Z,365
2017-05-06T06:09:34.373Z,350
2017-05-06T06:10:14.774Z,350
2017-05-06T06:10:55.203Z,335
2017-05-06T06:11:35.615Z,315
2017-05-06T06:12:18.014Z,305
2017-05-06T06:12:58.413Z,275
2017-05-06T06:13:38.848Z,310
2017-05-06T06:14:19.290Z,285
2017-05-06T06:14:59.678Z,280
2017-05-06T06:15:40.072Z,285
2017-05-06T06:16:20.481Z,330
2017-05-06T06:17:00.897Z,350
2017-05-06T06:17:41.326Z,355
2017-05-06T06:18:21.737Z,350
2017-05-06T06:19:02.213Z,360
2017-05-06T06:19:42.596Z,385
2017-05-06T06:20:23.011Z,385
2017-05-06T06:21:03.422Z,410
2017-05-06T06:21:43.839Z,405
2017-05-06T06:22:24.271Z,415
2017-05-06T06:23:04.677Z,420
2017-05-06T06:23:45.088Z,430
2017-05-06T06:24:25.503Z,430
2017-05-06T06:25:05.918Z,425
2017-05-06T06:25:46.374Z,435
2017-05-06T06:26:26.797Z,440
2017-05-06T06:27:07.168Z,435
2017-05-06T06:27:47.621Z,445
2017-05-06T06:28:28.017Z,445
2017-05-06T06:29:08.430Z,445
2017-05-06T06:29:48.868Z,450
2017-05-06T06:30:29.304Z,450
2017-05-06T06:32:42.098Z,460
2017-05-06T06:33:22.509Z,465
2017-05-06T06:34:02.934Z,475
2017-05-06T06:34:43.376Z,475
2017-05-06T06:35:23.787Z,470
2017-05-06T06:36:04.267Z,475
2017-05-06T06:36:44.700Z,475
2017-05-06T06:37:25.123Z,480
2017-05-06T06:38:05.557Z,490
2017-05-06T06:38:46.025Z,475
2017-05-06T06:39:26.416Z,485
2017-05-06T06:40:06.845Z,495
2017-05-06T06:42:45.130Z,500
2017-05-06T06:43:25.576Z,505
2017-05-06T06:44:06.037Z,505
2017-05-06T06:44:46.410Z,510
2017-05-06T06:45:26.856Z,510
2017-05-06T06:46:07.300Z,515
2017-05-06T06:46:47.689Z,520
2017-05-06T06:47:28.106Z,515
2017-05-06T06:48:08.508Z,520
2017-05-06T06:48:48.919Z,525
2017-05-06T06:49:29.351Z,530
2017-05-06T06:50:09.745Z,540
2017-05-06T06:50:50.206Z,545
2017-05-06T06:51:31.005Z,545
2017-05-06T06:52:11.445Z,555
2017-05-06T06:54:39.741Z,565
2017-05-06T06:55:19.831Z,560
2017-05-06T06:56:00.917Z,560
2017-05-06T06:56:41.337Z,565
2017-05-06T06:57:21.889Z,580
2017-05-06T06:58:02.327Z,575
2017-05-06T06:58:42.744Z,580
2017-05-06T07:00:55.721Z,575
2017-05-06T07:01:36.127Z,595
2017-05-06T07:02:16.580Z,635
2017-05-06T07:02:57.155Z,600
2017-05-06T07:03:38.298Z,585
2017-05-06T07:04:17.959Z,585
2017-05-06T07:04:58.430Z,590
2017-05-06T07:05:38.823Z,655
2017-05-06T07:06:19.313Z,635
2017-05-06T07:06:59.699Z,615
2017-05-06T07:07:40.139Z,610
2017-05-06T07:08:20.703Z,620
2017-05-06T07:09:01.117Z,630
2017-05-06T07:09:41.570Z,640
2017-05-06T07:10:21.950Z,655
2017-05-06T07:11:02.998Z,655
2017-05-06T07:11:43.422Z,580
2017-05-06T07:12:23.846Z,700
2017-05-06T07:13:04.314Z,755
2017-05-06T07:13:44.709Z,710
2017-05-06T07:14:25.115Z,705
2017-05-06T07:15:05.533Z,730
2017-05-06T07:15:45.998Z,740
2017-05-06T07:16:26.692Z,740
2017-05-06T07:17:07.099Z,830
2017-05-06T07:17:47.485Z,585
2017-05-06T07:18:28.510Z,1015
2017-05-06T07:19:08.939Z,1000
2017-05-06T07:19:49.376Z,930
2017-05-06T07:20:29.771Z,995
2017-05-06T07:21:10.286Z,990
2017-05-06T07:21:51.556Z,1010
2017-05-06T07:22:31.944Z,1040
2017-05-06T07:23:12.349Z,1050
2017-05-06T07:25:40.393Z,1180
2017-05-06T07:26:20.855Z,1175
2017-05-06T07:27:01.281Z,1300
2017-05-06T07:27:41.710Z,1635
2017-05-06T07:28:22.207Z,2095
2017-05-06T07:29:02.711Z,2480
2017-05-06T07:29:43.095Z,2650
2017-05-06T07:30:23.503Z,2600
2017-05-06T07:31:03.888Z,2690
2017-05-06T07:31:44.329Z,2675
2017-05-06T07:32:24.778Z,2710
2017-05-06T07:33:05.269Z,2495
2017-05-06T07:33:45.852Z,2650
2017-05-06T07:34:26.136Z,2665
2017-05-06T07:35:06.643Z,2695
2017-05-06T07:35:47.154Z,2745
2017-05-06T07:36:27.517Z,2615
2017-05-06T07:37:08.033Z,2625
2017-05-06T07:37:48.446Z,2510
2017-05-06T07:38:28.897Z,2670
2017-05-06T07:39:09.379Z,2695
2017-05-06T07:39:49.799Z,2820
2017-05-06T07:40:30.212Z,2685
2017-05-06T07:41:10.734Z,2960
2017-05-06T07:41:51.119Z,2995
2017-05-06T07:42:31.552Z,3065
2017-05-06T07:45:10.238Z,3265
2017-05-06T07:45:50.718Z,3190
2017-05-06T07:46:31.148Z,3110
2017-05-06T07:47:11.572Z,2930
2017-05-06T07:47:51.964Z,3170
2017-05-06T07:48:32.466Z,3215
2017-05-06T07:49:12.875Z,3355
2017-05-06T07:49:53.327Z,3415
2017-05-06T07:50:33.714Z,3405
2017-05-06T07:51:14.107Z,3395
2017-05-06T07:51:54.627Z,3515
2017-05-06T07:52:34.955Z,3280
2017-05-06T07:53:15.370Z,3190
2017-05-06T07:53:55.845Z,3135
2017-05-06T07:54:36.322Z,3190
2017-05-06T07:55:16.740Z,2985
2017-05-06T07:55:57.155Z,3415
2017-05-06T07:56:37.641Z,3055
2017-05-06T07:57:18.002Z,2805
2017-05-06T07:57:58.401Z,2825
2017-05-06T07:58:38.847Z,3035
2017-05-06T07:59:19.271Z,2755
2017-05-06T07:59:59.619Z,2875
2017-05-06T08:02:12.606Z,3150
2017-05-06T08:02:53.158Z,2895
2017-05-06T08:03:33.582Z,3460
2017-05-06T08:04:13.959Z,3705
2017-05-06T08:04:54.406Z,3665
2017-05-06T08:05:34.800Z,3710
2017-05-06T08:08:13.306Z,3655
2017-05-06T08:08:53.754Z,3870
2017-05-06T08:09:34.202Z,3675
2017-05-06T08:10:14.619Z,3585
2017-05-06T08:10:55.075Z,3580
2017-05-06T08:11:35.685Z,3530
2017-05-06T08:12:16.134Z,3660
2017-05-06T08:12:58.842Z,3990
2017-05-06T08:13:39.232Z,3855
2017-05-06T08:14:19.884Z,3730
2017-05-06T08:15:01.170Z,4040
2017-05-06T08:15:41.650Z,3370
2017-05-06T08:16:22.068Z,3145
2017-05-06T08:17:02.485Z,2905
2017-05-06T08:17:42.880Z,3125
2017-05-06T08:18:23.332Z,2835
2017-05-06T08:19:03.788Z,2630
2017-05-06T08:21:42.823Z,3010
2017-05-06T08:22:24.024Z,3355
2017-05-06T08:23:04.471Z,2260
2017-05-06T08:23:44.917Z,2550
2017-05-06T08:24:25.340Z,3095
2017-05-06T08:25:05.747Z,2620
2017-05-06T08:25:46.198Z,3240
2017-05-06T08:26:26.636Z,3130
2017-05-06T08:27:07.094Z,2850
2017-05-06T08:27:47.511Z,2805
2017-05-06T08:28:27.956Z,2715
2017-05-06T08:29:08.383Z,2645
2017-05-06T08:29:48.797Z,2425
2017-05-06T08:30:30.948Z,2725
2017-05-06T08:31:10.828Z,2445
2017-05-06T08:31:51.258Z,2835
2017-05-06T08:32:31.680Z,2210
2017-05-06T08:33:12.096Z,1990
2017-05-06T08:33:54.048Z,1735
2017-05-06T08:34:34.483Z,2440
2017-05-06T08:35:15.192Z,2330
2017-05-06T08:35:55.754Z,2700
2017-05-06T08:36:36.152Z,2905
2017-05-06T08:37:16.615Z,2315
2017-05-06T08:37:57.059Z,2570
2017-05-06T08:38:37.497Z,3995
2017-05-06T08:39:17.939Z,4675
2017-05-06T08:39:59.130Z,4410
2017-05-06T08:40:39.674Z,4380
2017-05-06T08:41:20.245Z,3295
2017-05-06T08:42:00.568Z,4015
2017-05-06T08:42:41.634Z,3350
2017-05-06T08:43:22.082Z,4545
2017-05-06T08:44:02.537Z,4515
2017-05-06T08:44:43.319Z,3585
2017-05-06T08:45:23.741Z,4165
2017-05-06T08:46:04.942Z,4495
2017-05-06T08:46:45.393Z,4450
2017-05-06T08:47:25.805Z,4680
2017-05-06T08:48:06.225Z,4065
2017-05-06T08:48:46.656Z,3925
2017-05-06T08:49:27.152Z,3830
2017-05-06T08:50:07.590Z,3960
2017-05-06T08:50:48.098Z,2615
2017-05-06T08:51:28.543Z,3455
2017-05-06T08:52:09.412Z,2795
2017-05-06T08:52:49.889Z,4460
2017-05-06T08:53:30.319Z,4685
2017-05-06T08:54:10.740Z,4635
2017-05-06T08:54:51.175Z,4800
2017-05-06T08:55:31.633Z,4245
2017-05-06T08:56:12.648Z,4125
2017-05-06T08:56:53.089Z,4650
2017-05-06T08:57:34.010Z,4525
2017-05-06T08:58:14.861Z,4525
2017-05-06T08:58:55.291Z,4875
2017-05-06T08:59:36.501Z,4570
2017-05-06T09:00:16.921Z,4735
2017-05-06T09:00:57.342Z,4700
2017-05-06T09:01:38.639Z,4810
2017-05-06T09:02:20.722Z,4880
2017-05-06T09:03:01.173Z,4885
2017-05-06T09:03:41.609Z,4760
2017-05-06T09:04:22.142Z,4935
2017-05-06T09:05:05.068Z,4990
2017-05-06T09:05:48.430Z,4895
2017-05-06T09:06:28.898Z,5060
2017-05-06T09:07:09.328Z,5080
2017-05-06T09:07:51.735Z,5300
2017-05-06T09:08:32.165Z,4810
2017-05-06T09:09:12.612Z,4655
2017-05-06T09:09:53.063Z,4960
2017-05-06T09:10:33.482Z,4785
2017-05-06T09:11:13.944Z,4940
2017-05-06T09:11:54.338Z,5135
2017-05-06T09:12:35.490Z,5180
2017-05-06T09:13:17.380Z,5230
2017-05-06T09:13:57.883Z,5230
2017-05-06T09:14:38.317Z,5500
2017-05-06T09:15:18.800Z,5350
2017-05-06T09:15:59.257Z,5275
2017-05-06T09:16:39.937Z,5175
2017-05-06T09:17:20.135Z,5135
2017-05-06T09:18:00.571Z,5205
2017-05-06T09:18:41.025Z,5415
2017-05-06T09:19:22.390Z,5445
2017-05-06T09:20:02.707Z,5310
2017-05-06T09:20:43.424Z,5325
2017-05-06T09:21:24.306Z,5350
2017-05-06T09:22:04.392Z,4190
2017-05-06T09:22:44.854Z,5180
2017-05-06T09:23:25.270Z,4170
2017-05-06T09:26:03.796Z,4755
2017-05-06T09:26:45.944Z,5420
2017-05-06T09:27:26.385Z,5195
2017-05-06T09:28:06.804Z,4460
2017-05-06T09:28:47.255Z,5240
2017-05-06T09:29:27.719Z,5255
2017-05-06T09:30:08.117Z,5355
2017-05-06T09:30:48.588Z,4965
2017-05-06T09:31:31.713Z,5045
2017-05-06T09:32:12.148Z,5160
2017-05-06T09:32:52.626Z,5690
2017-05-06T09:33:33.157Z,5630
2017-05-06T09:34:13.620Z,5180
2017-05-06T09:34:54.076Z,5360
2017-05-06T09:35:34.811Z,5540
2017-05-06T09:36:15.128Z,5570
2017-05-06T09:36:55.635Z,5330
2017-05-06T09:37:36.038Z,5415
2017-05-06T09:38:16.438Z,5420
2017-05-06T09:38:56.887Z,4730
2017-05-06T09:39:37.298Z,5130
2017-05-06T09:40:17.799Z,5240
2017-05-06T09:40:58.218Z,5055
2017-05-06T09:41:38.688Z,4555
2017-05-06T09:42:19.159Z,5635
2017-05-06T09:42:59.580Z,5785
2017-05-06T09:43:40.070Z,5475
2017-05-06T09:44:20.508Z,5200
2017-05-06T09:45:00.930Z,4680
2017-05-06T09:45:41.420Z,5645
2017-05-06T09:46:22.514Z,5480
2017-05-06T09:47:02.867Z,5255
2017-05-06T09:47:43.308Z,4985
2017-05-06T09:48:23.725Z,5155
2017-05-06T09:49:04.147Z,5690
2017-05-06T09:49:44.592Z,5775
2017-05-06T09:50:25.026Z,5805
2017-05-06T09:51:05.501Z,5580
2017-05-06T09:51:45.900Z,5250
2017-05-06T09:52:27.280Z,5825
2017-05-06T09:53:07.677Z,5650
2017-05-06T09:53:48.139Z,5315
2017-05-06T09:54:28.601Z,5525
2017-05-06T09:55:09.033Z,5070
2017-05-06T09:55:49.452Z,4835
2017-05-06T09:56:30.836Z,4405
2017-05-06T09:58:45.869Z,4550
2017-05-06T09:59:26.406Z,4975
2017-05-06T10:00:06.816Z,5035
2017-05-06T10:00:47.262Z,5485
2017-05-06T10:01:27.698Z,5385
2017-05-06T10:02:08.179Z,5700
2017-05-06T10:02:48.582Z,5555
2017-05-06T10:03:29.090Z,5395
2017-05-06T10:04:09.604Z,5960
2017-05-06T10:04:50.023Z,6215
2017-05-06T10:05:30.457Z,6220
2017-05-06T10:06:11.184Z,5920
2017-05-06T10:06:52.006Z,5725
2017-05-06T10:07:32.412Z,4980
2017-05-06T10:08:13.482Z,5275
2017-05-06T10:08:53.913Z,5870
2017-05-06T10:09:34.347Z,5595
2017-05-06T10:10:14.789Z,5580
2017-05-06T10:10:55.239Z,5745
2017-05-06T10:13:26.803Z,5300
2017-05-06T10:14:07.290Z,5050
2017-05-06T10:14:47.764Z,4700
2017-05-06T10:15:28.218Z,5720
2017-05-06T10:16:08.770Z,5955
2017-05-06T10:16:49.719Z,5880
2017-05-06T10:19:23.451Z,5270
2017-05-06T10:20:04.832Z,4995
2017-05-06T10:20:46.413Z,5040
2017-05-06T10:21:26.974Z,5470
2017-05-06T10:23:40.846Z,5790
2017-05-06T10:24:22.037Z,5920
2017-05-06T10:25:02.464Z,5630